Sortavala, Russia
Current Conditions -  °F | °C
As of 9:20 AM on Saturday 29 Nov 2014 (Local Time) from EFSA Reporting Station
Overcast Overcast  
Wind Chill: 32°   Ceiling: 800
Heat Index: 32°   Visibility: 6mi
Dew Point: 32°   Wind: 3mph
Humidity: 100%   Direction: 180°S
Pressure: 30.56"   Gusts: NA
Location:  61.7°N, 30.68°E
Report Text: EFSA 290620Z AUTO 18003KT 9999 OVC008 00/00 Q1035
Loading
Personal Weather Stations






























Interactive Weather Map New forecast layout! Learn more

10-Day Weather Forecast

Advertisements
Track Severe Weather on mobile